sensor_id;sensor_type;location;lat;lon;timestamp;pressure;altitude;pressure_sealevel;temperature;humidity
52653;BME280;39353;42.864;12.014;2022-11-06T00:01:55;97180.26;;;21.36;55.26
52653;BME280;39353;42.864;12.014;2022-11-06T00:04:36;97183.54;;;21.36;55.21
52653;BME280;39353;42.864;12.014;2022-11-06T00:07:18;97184.85;;;21.36;55.43
52653;BME280;39353;42.864;12.014;2022-11-06T00:09:45;97188.89;;;21.36;55.43
52653;BME280;39353;42.864;12.014;2022-11-06T00:12:13;97187.17;;;21.35;55.67
52653;BME280;39353;42.864;12.014;2022-11-06T00:14:41;97191.67;;;21.34;55.43
52653;BME280;39353;42.864;12.014;2022-11-06T00:17:22;97196.15;;;21.35;55.36
52653;BME280;39353;42.864;12.014;2022-11-06T00:20:04;97196.48;;;21.34;55.56
52653;BME280;39353;42.864;12.014;2022-11-06T00:22:34;97192.90;;;21.34;55.52
52653;BME280;39353;42.864;12.014;2022-11-06T00:25:16;97193.82;;;21.32;55.79
52653;BME280;39353;42.864;12.014;2022-11-06T00:27:44;97191.63;;;21.32;55.79
52653;BME280;39353;42.864;12.014;2022-11-06T00:30:25;97191.68;;;21.32;55.73
52653;BME280;39353;42.864;12.014;2022-11-06T00:32:53;97189.50;;;21.32;55.64
52653;BME280;39353;42.864;12.014;2022-11-06T00:35:36;97191.02;;;21.32;55.68
52653;BME280;39353;42.864;12.014;2022-11-06T00:38:18;97194.89;;;21.31;55.69
52653;BME280;39353;42.864;12.014;2022-11-06T00:41:06;97192.50;;;21.32;55.64
52653;BME280;39353;42.864;12.014;2022-11-06T00:43:34;97195.48;;;21.31;55.71
52653;BME280;39353;42.864;12.014;2022-11-06T00:46:07;97198.73;;;21.30;55.82
52653;BME280;39353;42.864;12.014;2022-11-06T00:48:36;97204.14;;;21.27;55.65
52653;BME280;39353;42.864;12.014;2022-11-06T00:51:19;97203.14;;;21.27;55.80
52653;BME280;39353;42.864;12.014;2022-11-06T00:53:51;97208.66;;;21.25;55.79
52653;BME280;39353;42.864;12.014;2022-11-06T00:56:33;97211.49;;;21.24;55.73
52653;BME280;39353;42.864;12.014;2022-11-06T00:59:05;97214.70;;;21.24;55.75
52653;BME280;39353;42.864;12.014;2022-11-06T01:01:47;97213.15;;;21.23;55.81
52653;BME280;39353;42.864;12.014;2022-11-06T01:04:30;97216.77;;;21.23;55.82
52653;BME280;39353;42.864;12.014;2022-11-06T01:06:58;97221.85;;;21.22;56.03
52653;BME280;39353;42.864;12.014;2022-11-06T01:09:27;97225.89;;;21.22;55.91
52653;BME280;39353;42.864;12.014;2022-11-06T01:12:08;97226.60;;;21.22;55.89
52653;BME280;39353;42.864;12.014;2022-11-06T01:14:49;97232.70;;;21.22;55.86
52653;BME280;39353;42.864;12.014;2022-11-06T01:17:16;97238.36;;;21.21;55.96
52653;BME280;39353;42.864;12.014;2022-11-06T01:19:44;97240.97;;;21.21;55.94
52653;BME280;39353;42.864;12.014;2022-11-06T01:22:25;97245.98;;;21.20;55.89
52653;BME280;39353;42.864;12.014;2022-11-06T01:24:52;97246.40;;;21.20;56.10
52653;BME280;39353;42.864;12.014;2022-11-06T01:27:33;97249.19;;;21.20;55.90
52653;BME280;39353;42.864;12.014;2022-11-06T01:30:00;97242.29;;;21.20;55.88
52653;BME280;39353;42.864;12.014;2022-11-06T01:32:27;97243.38;;;21.18;55.93
52653;BME280;39353;42.864;12.014;2022-11-06T01:34:54;97246.79;;;21.18;56.04
52653;BME280;39353;42.864;12.014;2022-11-06T01:37:35;97246.89;;;21.17;56.09
52653;BME280;39353;42.864;12.014;2022-11-06T01:40:16;97246.42;;;21.16;56.00
52653;BME280;39353;42.864;12.014;2022-11-06T01:42:43;97251.52;;;21.15;55.97
52653;BME280;39353;42.864;12.014;2022-11-06T01:45:37;97251.07;;;21.15;55.93
52653;BME280;39353;42.864;12.014;2022-11-06T01:48:23;97254.27;;;21.14;56.06
52653;BME280;39353;42.864;12.014;2022-11-06T01:51:06;97260.36;;;21.13;55.98
52653;BME280;39353;42.864;12.014;2022-11-06T01:53:34;97260.54;;;21.13;56.01
52653;BME280;39353;42.864;12.014;2022-11-06T01:56:09;97263.76;;;21.13;56.14
52653;BME280;39353;42.864;12.014;2022-11-06T01:58:54;97263.48;;;21.13;56.08
52653;BME280;39353;42.864;12.014;2022-11-06T02:01:22;97263.95;;;21.12;56.08
52653;BME280;39353;42.864;12.014;2022-11-06T02:04:27;97260.23;;;21.12;56.21
52653;BME280;39353;42.864;12.014;2022-11-06T02:10:02;97262.27;;;21.15;56.14
52653;BME280;39353;42.864;12.014;2022-11-06T02:12:56;97263.50;;;21.14;56.08
52653;BME280;39353;42.864;12.014;2022-11-06T02:15:36;97253.77;;;21.13;56.08
52653;BME280;39353;42.864;12.014;2022-11-06T02:27:07;97238.53;;;21.11;56.17
52653;BME280;39353;42.864;12.014;2022-11-06T02:32:57;97241.44;;;21.10;56.25
52653;BME280;39353;42.864;12.014;2022-11-06T02:35:44;97245.52;;;21.09;56.03
52653;BME280;39353;42.864;12.014;2022-11-06T02:38:35;97242.14;;;21.08;56.18
52653;BME280;39353;42.864;12.014;2022-11-06T02:41:08;97248.32;;;21.07;56.11
52653;BME280;39353;42.864;12.014;2022-11-06T02:43:52;97253.27;;;21.07;56.03
52653;BME280;39353;42.864;12.014;2022-11-06T02:46:45;97260.27;;;21.08;56.09
52653;BME280;39353;42.864;12.014;2022-11-06T02:49:53;97257.69;;;21.07;56.21
52653;BME280;39353;42.864;12.014;2022-11-06T02:52:29;97261.41;;;21.07;56.06
52653;BME280;39353;42.864;12.014;2022-11-06T02:55:28;97263.27;;;21.07;56.19
52653;BME280;39353;42.864;12.014;2022-11-06T02:58:04;97264.57;;;21.07;56.23
52653;BME280;39353;42.864;12.014;2022-11-06T03:00:37;97264.02;;;21.07;56.24
52653;BME280;39353;42.864;12.014;2022-11-06T03:03:25;97271.57;;;21.05;56.17
52653;BME280;39353;42.864;12.014;2022-11-06T03:05:55;97280.51;;;21.05;56.24
52653;BME280;39353;42.864;12.014;2022-11-06T03:11:32;97281.34;;;21.03;56.23
52653;BME280;39353;42.864;12.014;2022-11-06T03:17:13;97290.15;;;21.02;56.07
52653;BME280;39353;42.864;12.014;2022-11-06T03:19:45;97294.66;;;21.02;56.34
52653;BME280;39353;42.864;12.014;2022-11-06T03:22:30;97291.81;;;21.01;56.31
52653;BME280;39353;42.864;12.014;2022-11-06T03:25:04;97287.98;;;21.01;56.27
52653;BME280;39353;42.864;12.014;2022-11-06T03:30:49;97289.73;;;21.01;56.22
52653;BME280;39353;42.864;12.014;2022-11-06T03:33:32;97288.61;;;21.00;56.18
52653;BME280;39353;42.864;12.014;2022-11-06T03:36:07;97296.00;;;20.99;56.22
52653;BME280;39353;42.864;12.014;2022-11-06T03:39:02;97296.42;;;20.98;56.35
52653;BME280;39353;42.864;12.014;2022-11-06T03:41:50;97295.84;;;20.98;56.41
52653;BME280;39353;42.864;12.014;2022-11-06T03:44:39;97298.86;;;20.99;56.23
52653;BME280;39353;42.864;12.014;2022-11-06T03:47:21;97297.56;;;20.97;56.09
52653;BME280;39353;42.864;12.014;2022-11-06T03:50:12;97295.35;;;20.97;56.15
52653;BME280;39353;42.864;12.014;2022-11-06T03:52:49;97293.81;;;20.96;56.20
52653;BME280;39353;42.864;12.014;2022-11-06T03:55:32;97295.75;;;20.95;56.30
52653;BME280;39353;42.864;12.014;2022-11-06T03:58:22;97299.73;;;20.97;56.40
52653;BME280;39353;42.864;12.014;2022-11-06T04:00:53;97296.13;;;20.95;56.30
52653;BME280;39353;42.864;12.014;2022-11-06T04:03:36;97293.95;;;20.95;56.23
52653;BME280;39353;42.864;12.014;2022-11-06T04:06:24;97294.20;;;20.95;56.25
52653;BME280;39353;42.864;12.014;2022-11-06T04:09:11;97291.42;;;20.93;56.27
52653;BME280;39353;42.864;12.014;2022-11-06T04:12:03;97292.13;;;20.93;56.17
52653;BME280;39353;42.864;12.014;2022-11-06T04:14:53;97295.02;;;20.93;56.15
52653;BME280;39353;42.864;12.014;2022-11-06T04:17:39;97299.33;;;20.92;56.16
52653;BME280;39353;42.864;12.014;2022-11-06T04:20:23;97300.63;;;20.92;56.35
52653;BME280;39353;42.864;12.014;2022-11-06T04:24:24;97297.52;;;20.92;56.39
52653;BME280;39353;42.864;12.014;2022-11-06T04:27:42;97295.11;;;20.91;56.15
52653;BME280;39353;42.864;12.014;2022-11-06T04:30:43;97300.05;;;20.91;56.25
52653;BME280;39353;42.864;12.014;2022-11-06T04:33:30;97294.95;;;20.90;56.42
52653;BME280;39353;42.864;12.014;2022-11-06T04:36:11;97299.64;;;20.90;56.34
52653;BME280;39353;42.864;12.014;2022-11-06T04:39:13;97307.29;;;20.90;56.49
52653;BME280;39353;42.864;12.014;2022-11-06T04:42:04;97304.86;;;20.89;56.34
52653;BME280;39353;42.864;12.014;2022-11-06T04:44:51;97309.87;;;20.89;56.31
52653;BME280;39353;42.864;12.014;2022-11-06T04:47:38;97315.02;;;20.88;56.20
52653;BME280;39353;42.864;12.014;2022-11-06T04:50:07;97324.47;;;20.88;56.27
52653;BME280;39353;42.864;12.014;2022-11-06T04:52:38;97330.14;;;20.88;56.42
52653;BME280;39353;42.864;12.014;2022-11-06T04:55:08;97328.88;;;20.88;56.32
52653;BME280;39353;42.864;12.014;2022-11-06T04:57:49;97327.75;;;20.87;56.28
52653;BME280;39353;42.864;12.014;2022-11-06T05:00:30;97323.31;;;20.86;56.33
52653;BME280;39353;42.864;12.014;2022-11-06T05:02:57;97329.13;;;20.85;56.36
52653;BME280;39353;42.864;12.014;2022-11-06T05:05:40;97335.24;;;20.86;56.24
52653;BME280;39353;42.864;12.014;2022-11-06T05:08:21;97342.21;;;20.85;56.39
52653;BME280;39353;42.864;12.014;2022-11-06T05:10:49;97351.23;;;20.86;56.36
52653;BME280;39353;42.864;12.014;2022-11-06T05:13:16;97352.95;;;20.85;56.39
52653;BME280;39353;42.864;12.014;2022-11-06T05:15:44;97349.25;;;20.85;56.36
52653;BME280;39353;42.864;12.014;2022-11-06T05:18:11;97350.72;;;20.85;56.30
52653;BME280;39353;42.864;12.014;2022-11-06T05:20:53;97350.48;;;20.85;56.21
52653;BME280;39353;42.864;12.014;2022-11-06T05:23:41;97347.05;;;20.84;56.28
52653;BME280;39353;42.864;12.014;2022-11-06T05:26:23;97341.52;;;20.83;56.26
52653;BME280;39353;42.864;12.014;2022-11-06T05:28:51;97339.09;;;20.83;56.36
52653;BME280;39353;42.864;12.014;2022-11-06T05:31:32;97345.27;;;20.82;56.36
52653;BME280;39353;42.864;12.014;2022-11-06T05:34:00;97345.09;;;20.82;56.28
52653;BME280;39353;42.864;12.014;2022-11-06T05:36:41;97347.79;;;20.81;56.30
52653;BME280;39353;42.864;12.014;2022-11-06T05:39:22;97352.80;;;20.81;56.15
52653;BME280;39353;42.864;12.014;2022-11-06T05:41:49;97354.06;;;20.80;56.37
52653;BME280;39353;42.864;12.014;2022-11-06T05:44:30;97357.25;;;20.80;56.34
52653;BME280;39353;42.864;12.014;2022-11-06T05:47:12;97362.19;;;20.80;56.19
52653;BME280;39353;42.864;12.014;2022-11-06T05:49:40;97368.31;;;20.80;56.36
52653;BME280;39353;42.864;12.014;2022-11-06T05:52:21;97372.46;;;20.81;56.22
52653;BME280;39353;42.864;12.014;2022-11-06T05:55:05;97374.45;;;20.79;56.26
52653;BME280;39353;42.864;12.014;2022-11-06T05:57:46;97372.27;;;20.80;56.20
52653;BME280;39353;42.864;12.014;2022-11-06T06:00:14;97372.86;;;20.78;56.29
52653;BME280;39353;42.864;12.014;2022-11-06T06:02:55;97379.45;;;20.78;56.32
52653;BME280;39353;42.864;12.014;2022-11-06T06:05:22;97387.29;;;20.78;56.44
52653;BME280;39353;42.864;12.014;2022-11-06T06:08:04;97394.80;;;20.77;56.28
52653;BME280;39353;42.864;12.014;2022-11-06T06:10:32;97396.22;;;20.77;56.45
52653;BME280;39353;42.864;12.014;2022-11-06T06:13:13;97400.97;;;20.77;56.31
52653;BME280;39353;42.864;12.014;2022-11-06T06:16:00;97404.36;;;20.78;56.21
52653;BME280;39353;42.864;12.014;2022-11-06T06:18:28;97406.48;;;20.78;56.35
52653;BME280;39353;42.864;12.014;2022-11-06T06:21:09;97400.79;;;20.79;56.30
52653;BME280;39353;42.864;12.014;2022-11-06T06:23:50;97405.09;;;20.79;56.26
52653;BME280;39353;42.864;12.014;2022-11-06T06:26:17;97409.10;;;20.80;56.26
52653;BME280;39353;42.864;12.014;2022-11-06T06:28:47;97416.70;;;20.80;56.17
52653;BME280;39353;42.864;12.014;2022-11-06T06:31:29;97413.50;;;20.80;56.29
52653;BME280;39353;42.864;12.014;2022-11-06T06:33:56;97420.01;;;20.80;56.26
52653;BME280;39353;42.864;12.014;2022-11-06T06:36:23;97416.52;;;20.80;56.30
52653;BME280;39353;42.864;12.014;2022-11-06T06:39:03;97422.05;;;20.81;56.09
52653;BME280;39353;42.864;12.014;2022-11-06T06:41:46;97422.27;;;20.83;56.17
52653;BME280;39353;42.864;12.014;2022-11-06T06:44:28;97429.14;;;20.85;56.22
52653;BME280;39353;42.864;12.014;2022-11-06T06:46:56;97430.64;;;20.87;56.21
52653;BME280;39353;42.864;12.014;2022-11-06T06:49:36;97433.30;;;20.89;56.03
52653;BME280;39353;42.864;12.014;2022-11-06T06:52:04;97433.78;;;20.90;55.82
52653;BME280;39353;42.864;12.014;2022-11-06T06:54:45;97436.52;;;20.89;55.07
52653;BME280;39353;42.864;12.014;2022-11-06T06:57:26;97435.98;;;20.89;55.38
52653;BME280;39353;42.864;12.014;2022-11-06T06:59:53;97433.80;;;20.89;55.01
52653;BME280;39353;42.864;12.014;2022-11-06T07:02:20;97435.35;;;20.88;55.26
52653;BME280;39353;42.864;12.014;2022-11-06T07:04:47;97435.79;;;20.88;55.21
52653;BME280;39353;42.864;12.014;2022-11-06T07:07:17;97439.06;;;20.87;55.40
52653;BME280;39353;42.864;12.014;2022-11-06T07:09:58;97443.25;;;20.84;54.67
52653;BME280;39353;42.864;12.014;2022-11-06T07:12:26;97445.77;;;20.83;54.50
52653;BME280;39353;42.864;12.014;2022-11-06T07:14:53;97446.27;;;20.85;54.10
52653;BME280;39353;42.864;12.014;2022-11-06T07:17:20;97440.80;;;20.86;54.28
52653;BME280;39353;42.864;12.014;2022-11-06T07:19:47;97443.34;;;20.87;54.19
52653;BME280;39353;42.864;12.014;2022-11-06T07:22:14;97444.70;;;20.87;54.16
52653;BME280;39353;42.864;12.014;2022-11-06T07:24:55;97444.10;;;20.87;53.99
52653;BME280;39353;42.864;12.014;2022-11-06T07:27:36;97452.30;;;20.86;52.92
52653;BME280;39353;42.864;12.014;2022-11-06T07:30:16;97454.15;;;20.84;53.17
52653;BME280;39353;42.864;12.014;2022-11-06T07:33:00;97457.25;;;20.81;53.45
52653;BME280;39353;42.864;12.014;2022-11-06T07:35:29;97459.21;;;20.82;53.42
52653;BME280;39353;42.864;12.014;2022-11-06T07:38:10;97459.03;;;20.83;53.46
52653;BME280;39353;42.864;12.014;2022-11-06T07:40:51;97455.79;;;20.84;53.72
52653;BME280;39353;42.864;12.014;2022-11-06T07:43:34;97458.84;;;20.86;54.03
52653;BME280;39353;42.864;12.014;2022-11-06T07:46:05;97459.16;;;20.87;54.16
52653;BME280;39353;42.864;12.014;2022-11-06T07:48:47;97457.60;;;20.88;54.24
52653;BME280;39353;42.864;12.014;2022-11-06T07:51:16;97458.42;;;20.90;54.17
52653;BME280;39353;42.864;12.014;2022-11-06T07:53:57;97455.84;;;20.91;54.35
52653;BME280;39353;42.864;12.014;2022-11-06T07:56:24;97457.60;;;20.91;54.31
52653;BME280;39353;42.864;12.014;2022-11-06T07:59:05;97466.05;;;20.93;54.45
52653;BME280;39353;42.864;12.014;2022-11-06T08:01:34;97461.55;;;20.94;54.38
52653;BME280;39353;42.864;12.014;2022-11-06T08:04:02;97461.79;;;20.95;54.59
52653;BME280;39353;42.864;12.014;2022-11-06T08:06:44;97462.61;;;20.97;54.48
52653;BME280;39353;42.864;12.014;2022-11-06T08:09:25;97461.96;;;20.99;54.69
52653;BME280;39353;42.864;12.014;2022-11-06T08:11:52;97461.48;;;21.00;54.93
52653;BME280;39353;42.864;12.014;2022-11-06T08:14:20;97470.16;;;21.02;54.65
52653;BME280;39353;42.864;12.014;2022-11-06T08:16:47;97474.02;;;21.01;54.70
52653;BME280;39353;42.864;12.014;2022-11-06T08:19:28;97468.89;;;20.99;54.70
52653;BME280;39353;42.864;12.014;2022-11-06T08:22:10;97465.04;;;20.98;54.76
52653;BME280;39353;42.864;12.014;2022-11-06T08:24:51;97464.80;;;20.97;54.85
52653;BME280;39353;42.864;12.014;2022-11-06T08:27:33;97466.86;;;20.96;54.85
52653;BME280;39353;42.864;12.014;2022-11-06T08:30:01;97466.70;;;20.96;54.73
52653;BME280;39353;42.864;12.014;2022-11-06T08:32:28;97470.55;;;20.97;54.69
52653;BME280;39353;42.864;12.014;2022-11-06T08:35:11;97472.75;;;20.98;54.61
52653;BME280;39353;42.864;12.014;2022-11-06T08:37:39;97478.24;;;21.00;54.54
52653;BME280;39353;42.864;12.014;2022-11-06T08:40:20;97476.75;;;21.05;54.58
52653;BME280;39353;42.864;12.014;2022-11-06T08:43:03;97476.67;;;21.10;54.66
52653;BME280;39353;42.864;12.014;2022-11-06T08:45:44;97481.52;;;21.15;54.67
52653;BME280;39353;42.864;12.014;2022-11-06T08:48:13;97480.71;;;21.19;54.59
52653;BME280;39353;42.864;12.014;2022-11-06T08:50:54;97481.20;;;21.21;55.00
52653;BME280;39353;42.864;12.014;2022-11-06T08:53:23;97484.23;;;21.24;55.20
52653;BME280;39353;42.864;12.014;2022-11-06T08:55:50;97484.73;;;21.26;55.40
52653;BME280;39353;42.864;12.014;2022-11-06T08:58:17;97490.29;;;21.28;55.67
52653;BME280;39353;42.864;12.014;2022-11-06T09:00:59;97491.08;;;21.28;55.76
52653;BME280;39353;42.864;12.014;2022-11-06T09:03:40;97484.70;;;21.28;55.53
52653;BME280;39353;42.864;12.014;2022-11-06T09:06:22;97489.54;;;21.28;55.63
52653;BME280;39353;42.864;12.014;2022-11-06T09:08:49;97491.73;;;21.29;55.95
52653;BME280;39353;42.864;12.014;2022-11-06T09:11:31;97493.96;;;21.30;55.88
52653;BME280;39353;42.864;12.014;2022-11-06T09:13:58;97494.23;;;21.28;56.05
52653;BME280;39353;42.864;12.014;2022-11-06T09:16:25;97497.48;;;21.27;56.07
52653;BME280;39353;42.864;12.014;2022-11-06T09:19:06;97494.77;;;21.26;55.73
52653;BME280;39353;42.864;12.014;2022-11-06T09:21:34;97493.02;;;21.25;55.59
52653;BME280;39353;42.864;12.014;2022-11-06T09:24:16;97495.32;;;21.24;55.43
52653;BME280;39353;42.864;12.014;2022-11-06T09:26:57;97492.34;;;21.25;55.16
52653;BME280;39353;42.864;12.014;2022-11-06T09:29:38;97495.92;;;21.24;55.07
52653;BME280;39353;42.864;12.014;2022-11-06T09:32:06;97491.10;;;21.23;55.12
52653;BME280;39353;42.864;12.014;2022-11-06T09:34:47;97490.05;;;21.23;55.09
52653;BME280;39353;42.864;12.014;2022-11-06T09:37:14;97492.56;;;21.23;55.10
52653;BME280;39353;42.864;12.014;2022-11-06T09:39:57;97485.89;;;21.23;54.68
52653;BME280;39353;42.864;12.014;2022-11-06T09:45:57;97494.30;;;21.19;53.29
52653;BME280;39353;42.864;12.014;2022-11-06T09:48:42;97489.04;;;21.17;52.74
52653;BME280;39353;42.864;12.014;2022-11-06T09:56:41;97489.20;;;21.20;52.68
52653;BME280;39353;42.864;12.014;2022-11-06T09:59:17;97489.71;;;21.19;52.64
52653;BME280;39353;42.864;12.014;2022-11-06T10:01:58;97484.56;;;21.18;52.84
52653;BME280;39353;42.864;12.014;2022-11-06T10:04:49;97487.30;;;21.19;52.68
52653;BME280;39353;42.864;12.014;2022-11-06T10:07:34;97488.59;;;21.18;52.62
52653;BME280;39353;42.864;12.014;2022-11-06T10:10:18;97486.27;;;21.19;52.82
52653;BME280;39353;42.864;12.014;2022-11-06T10:15:47;97483.58;;;21.24;52.79
52653;BME280;39353;42.864;12.014;2022-11-06T10:18:42;97480.61;;;21.25;52.66
52653;BME280;39353;42.864;12.014;2022-11-06T10:21:30;97481.50;;;21.25;52.78
52653;BME280;39353;42.864;12.014;2022-11-06T10:27:16;97485.48;;;21.27;52.59
52653;BME280;39353;42.864;12.014;2022-11-06T10:29:58;97483.48;;;21.28;52.83
52653;BME280;39353;42.864;12.014;2022-11-06T10:35:38;97487.23;;;21.27;52.77
52653;BME280;39353;42.864;12.014;2022-11-06T10:38:33;97487.17;;;21.29;52.84
52653;BME280;39353;42.864;12.014;2022-11-06T10:41:22;97489.45;;;21.31;52.79
52653;BME280;39353;42.864;12.014;2022-11-06T10:44:16;97492.39;;;21.31;52.76
52653;BME280;39353;42.864;12.014;2022-11-06T10:47:37;97486.19;;;21.31;52.84
52653;BME280;39353;42.864;12.014;2022-11-06T10:50:27;97484.90;;;21.30;52.86
52653;BME280;39353;42.864;12.014;2022-11-06T10:59:18;97473.07;;;21.29;53.02
52653;BME280;39353;42.864;12.014;2022-11-06T11:05:12;97467.20;;;21.27;52.92
52653;BME280;39353;42.864;12.014;2022-11-06T11:07:42;97465.86;;;21.27;53.16
52653;BME280;39353;42.864;12.014;2022-11-06T11:10:28;97458.70;;;21.26;53.02
52653;BME280;39353;42.864;12.014;2022-11-06T11:12:59;97453.87;;;21.25;53.05
52653;BME280;39353;42.864;12.014;2022-11-06T11:16:03;97458.36;;;21.26;53.04
52653;BME280;39353;42.864;12.014;2022-11-06T11:18:38;97454.11;;;21.26;53.15
52653;BME280;39353;42.864;12.014;2022-11-06T11:26:50;97441.69;;;21.27;53.02
52653;BME280;39353;42.864;12.014;2022-11-06T11:29:41;97441.57;;;21.26;53.08
52653;BME280;39353;42.864;12.014;2022-11-06T11:32:15;97440.27;;;21.26;53.05
52653;BME280;39353;42.864;12.014;2022-11-06T11:34:57;97443.66;;;21.27;52.92
52653;BME280;39353;42.864;12.014;2022-11-06T11:37:40;97445.87;;;21.28;53.04
52653;BME280;39353;42.864;12.014;2022-11-06T11:42:49;97447.97;;;21.28;53.09
52653;BME280;39353;42.864;12.014;2022-11-06T11:45:30;97447.09;;;21.31;53.17
52653;BME280;39353;42.864;12.014;2022-11-06T11:48:15;97448.82;;;21.30;53.09
52653;BME280;39353;42.864;12.014;2022-11-06T11:50:56;97453.34;;;21.32;52.95
52653;BME280;39353;42.864;12.014;2022-11-06T11:53:37;97450.73;;;21.37;53.25
52653;BME280;39353;42.864;12.014;2022-11-06T11:56:20;97448.95;;;21.45;53.60
52653;BME280;39353;42.864;12.014;2022-11-06T11:58:56;97442.82;;;21.54;54.57
52653;BME280;39353;42.864;12.014;2022-11-06T12:01:39;97437.20;;;21.63;54.96
52653;BME280;39353;42.864;12.014;2022-11-06T12:04:26;97436.35;;;21.71;55.65
52653;BME280;39353;42.864;12.014;2022-11-06T12:07:11;97435.72;;;21.77;56.16
52653;BME280;39353;42.864;12.014;2022-11-06T12:09:55;97450.20;;;21.81;56.56
52653;BME280;39353;42.864;12.014;2022-11-06T12:12:36;97447.99;;;21.82;56.30
52653;BME280;39353;42.864;12.014;2022-11-06T12:18:16;97439.28;;;21.99;56.37
52653;BME280;39353;42.864;12.014;2022-11-06T12:21:04;97433.41;;;21.98;54.63
52653;BME280;39353;42.864;12.014;2022-11-06T12:24:06;97425.39;;;21.92;52.80
52653;BME280;39353;42.864;12.014;2022-11-06T12:27:21;97412.89;;;21.85;51.90
52653;BME280;39353;42.864;12.014;2022-11-06T12:30:14;97412.44;;;21.74;51.94
52653;BME280;39353;42.864;12.014;2022-11-06T12:33:15;97401.09;;;21.66;52.08
52653;BME280;39353;42.864;12.014;2022-11-06T12:36:01;97389.13;;;21.58;51.80
52653;BME280;39353;42.864;12.014;2022-11-06T12:38:45;97391.30;;;21.53;51.68
52653;BME280;39353;42.864;12.014;2022-11-06T12:41:42;97398.66;;;21.49;51.92
52653;BME280;39353;42.864;12.014;2022-11-06T12:44:15;97394.31;;;21.46;51.86
52653;BME280;39353;42.864;12.014;2022-11-06T12:50:03;97410.73;;;21.40;52.36
52653;BME280;39353;42.864;12.014;2022-11-06T12:52:55;97413.68;;;21.39;52.20
52653;BME280;39353;42.864;12.014;2022-11-06T12:55:34;97414.12;;;21.37;52.22
52653;BME280;39353;42.864;12.014;2022-11-06T12:59:09;97423.13;;;21.35;52.47
52653;BME280;39353;42.864;12.014;2022-11-06T13:04:51;97433.65;;;21.33;52.29
52653;BME280;39353;42.864;12.014;2022-11-06T13:21:54;97431.35;;;21.27;52.87
52653;BME280;39353;42.864;12.014;2022-11-06T13:27:39;97431.44;;;21.23;52.24
52653;BME280;39353;42.864;12.014;2022-11-06T13:30:27;97436.77;;;21.27;51.83
52653;BME280;39353;42.864;12.014;2022-11-06T13:33:07;97438.54;;;21.31;52.15
52653;BME280;39353;42.864;12.014;2022-11-06T13:35:42;97440.48;;;21.35;52.23
52653;BME280;39353;42.864;12.014;2022-11-06T13:38:57;97439.01;;;21.39;51.74
52653;BME280;39353;42.864;12.014;2022-11-06T13:41:40;97433.22;;;21.38;51.45
52653;BME280;39353;42.864;12.014;2022-11-06T13:44:23;97435.25;;;21.39;49.87
52653;BME280;39353;42.864;12.014;2022-11-06T13:47:21;97440.31;;;21.29;47.21
52653;BME280;39353;42.864;12.014;2022-11-06T13:50:21;97444.09;;;21.23;48.29
52653;BME280;39353;42.864;12.014;2022-11-06T13:56:13;97441.80;;;21.23;48.16
52653;BME280;39353;42.864;12.014;2022-11-06T14:02:17;97447.41;;;21.25;48.68
52653;BME280;39353;42.864;12.014;2022-11-06T14:08:03;97453.58;;;21.26;49.15
52653;BME280;39353;42.864;12.014;2022-11-06T14:10:35;97455.35;;;21.25;49.47
52653;BME280;39353;42.864;12.014;2022-11-06T14:13:23;97461.93;;;21.26;49.37
52653;BME280;39353;42.864;12.014;2022-11-06T14:18:57;97465.92;;;21.11;43.80
52653;BME280;39353;42.864;12.014;2022-11-06T14:30:38;97484.66;;;21.07;47.82
52653;BME280;39353;42.864;12.014;2022-11-06T14:33:59;97482.70;;;21.09;48.00
52653;BME280;39353;42.864;12.014;2022-11-06T14:36:40;97474.99;;;21.12;48.49
52653;BME280;39353;42.864;12.014;2022-11-06T14:40:02;97471.86;;;21.13;48.83
52653;BME280;39353;42.864;12.014;2022-11-06T14:42:32;97477.09;;;21.16;49.18
52653;BME280;39353;42.864;12.014;2022-11-06T14:45:15;97476.34;;;21.17;49.32
52653;BME280;39353;42.864;12.014;2022-11-06T14:47:58;97481.86;;;21.20;49.55
52653;BME280;39353;42.864;12.014;2022-11-06T14:50:40;97486.20;;;21.21;49.63
52653;BME280;39353;42.864;12.014;2022-11-06T14:56:29;97490.41;;;21.24;49.94
52653;BME280;39353;42.864;12.014;2022-11-06T14:59:20;97493.30;;;21.26;49.81
52653;BME280;39353;42.864;12.014;2022-11-06T15:01:59;97498.20;;;21.27;49.65
52653;BME280;39353;42.864;12.014;2022-11-06T15:05:01;97499.36;;;21.28;49.92
52653;BME280;39353;42.864;12.014;2022-11-06T15:13:23;97494.36;;;21.27;50.38
52653;BME280;39353;42.864;12.014;2022-11-06T15:16:10;97491.85;;;21.27;50.33
52653;BME280;39353;42.864;12.014;2022-11-06T15:18:42;97490.34;;;21.27;50.50
52653;BME280;39353;42.864;12.014;2022-11-06T15:21:30;97493.11;;;21.27;50.63
52653;BME280;39353;42.864;12.014;2022-11-06T15:24:19;97498.20;;;21.26;50.67
52653;BME280;39353;42.864;12.014;2022-11-06T15:27:28;97495.35;;;21.25;51.07
52653;BME280;39353;42.864;12.014;2022-11-06T15:30:17;97494.34;;;21.26;50.93
52653;BME280;39353;42.864;12.014;2022-11-06T15:33:03;97493.02;;;21.25;51.29
52653;BME280;39353;42.864;12.014;2022-11-06T15:35:35;97494.30;;;21.25;51.08
52653;BME280;39353;42.864;12.014;2022-11-06T15:38:21;97492.92;;;21.24;51.35
52653;BME280;39353;42.864;12.014;2022-11-06T15:40:53;97491.96;;;21.25;51.26
52653;BME280;39353;42.864;12.014;2022-11-06T15:43:30;97494.70;;;21.25;51.39
52653;BME280;39353;42.864;12.014;2022-11-06T15:46:27;97495.90;;;21.25;51.37
52653;BME280;39353;42.864;12.014;2022-11-06T15:49:18;97494.69;;;21.25;51.65
52653;BME280;39353;42.864;12.014;2022-11-06T15:52:02;97492.98;;;21.23;51.77
52653;BME280;39353;42.864;12.014;2022-11-06T15:59:45;97494.98;;;21.18;51.47
52653;BME280;39353;42.864;12.014;2022-11-06T16:02:18;97499.64;;;21.17;50.78